Time;durP1;ratioP1;P1;durP2;ratioP2;P2;SDS_P1;SDS_P2;PMS_P1;PMS_P2;Temp;Humidity;BMP_temperature;BMP_pressure;BME280_temperature;BME280_humidity;BME280_pressure;Samples;Min_cycle;Max_cycle;Signal;HPM_P1;HPM_P2
2021/06/24 00:00:44;;;;;;;20.40;7.30;;;;;;;-145.50;100.00;65435.88;4873150;29;20478;-47
2021/06/24 00:04:09;;;;;;;26.35;8.30;;;;;;;-145.50;100.00;65435.88;4880168;29;20549;-48
2021/06/24 00:07:34;;;;;;;25.00;8.15;;;;;;;-145.50;100.00;65435.88;4860975;29;20057;-47
2021/06/24 00:10:59;;;;;;;19.08;7.70;;;;;;;-145.50;100.00;65435.88;4878803;29;20135;-50
2021/06/24 00:14:25;;;;;;;18.92;6.97;;;;;;;-145.50;100.00;65435.88;4874134;29;20160;-47
2021/06/24 00:17:50;;;;;;;26.45;8.13;;;;;;;-145.50;100.00;65435.88;4876430;29;20135;-47
2021/06/24 00:21:15;;;;;;;17.10;8.07;;;;;;;-145.50;100.00;65435.88;4877984;29;20534;-47
2021/06/24 00:24:40;;;;;;;18.42;8.05;;;;;;;-145.50;100.00;65435.88;4869014;29;20151;-50
2021/06/24 00:28:05;;;;;;;22.35;8.55;;;;;;;-145.50;100.00;65435.88;4878248;29;20088;-49
2021/06/24 00:31:31;;;;;;;22.58;8.10;;;;;;;-145.50;100.00;65435.88;4884140;29;20405;-48
2021/06/24 00:35:05;;;;;;;22.98;8.13;;;;;;;-145.50;100.00;65435.88;4867990;29;20049;-49
2021/06/24 00:38:30;;;;;;;20.83;7.75;;;;;;;-145.50;100.00;65435.88;4888287;29;20143;-48
2021/06/24 00:41:56;;;;;;;24.85;9.18;;;;;;;-145.50;100.00;65435.88;4884280;29;20160;-48
2021/06/24 00:45:21;;;;;;;16.52;7.97;;;;;;;-145.50;100.00;65435.88;4881515;29;20509;-48
2021/06/24 00:48:54;;;;;;;21.95;8.90;;;;;;;-145.50;100.00;65435.88;4883504;29;20143;-48
2021/06/24 00:52:19;;;;;;;22.65;8.48;;;;;;;-145.50;100.00;65435.88;4877463;29;20209;-48
2021/06/24 00:55:45;;;;;;;24.73;9.25;;;;;;;-145.50;100.00;65435.88;4887470;29;20075;-51
2021/06/24 00:59:15;;;;;;;18.65;8.32;;;;;;;-145.50;100.00;65435.88;4872015;29;20091;-46
2021/06/24 01:02:40;;;;;;;22.95;8.48;;;;;;;-145.50;100.00;65435.88;4873570;29;20060;-50
2021/06/24 01:06:05;;;;;;;22.63;8.95;;;;;;;-145.50;100.00;65435.88;4898257;29;20131;-50
2021/06/24 01:09:30;;;;;;;19.05;8.13;;;;;;;-145.50;100.00;65435.88;4866957;29;20431;-47
2021/06/24 01:12:55;;;;;;;24.35;9.05;;;;;;;-145.50;100.00;65435.88;4890170;29;20559;-49
2021/06/24 01:16:20;;;;;;;22.80;8.20;;;;;;;-145.50;100.00;65435.88;4894841;29;20071;-48
2021/06/24 01:19:46;;;;;;;18.73;7.72;;;;;;;-145.50;100.00;65435.88;4878579;29;20052;-47
2021/06/24 01:23:11;;;;;;;21.70;8.20;;;;;;;-145.50;100.00;65435.88;4881091;29;20092;-48
2021/06/24 01:26:38;;;;;;;18.85;8.35;;;;;;;-145.50;100.00;65435.88;4866856;29;20149;-48
2021/06/24 01:30:03;;;;;;;22.37;8.30;;;;;;;-145.50;100.00;65435.88;4892632;29;20156;-48
2021/06/24 01:33:30;;;;;;;20.77;9.20;;;;;;;-145.50;100.00;65435.88;4904982;29;20098;-49
2021/06/24 01:37:00;;;;;;;19.10;8.18;;;;;;;-145.50;100.00;65435.88;4881596;29;20870;-48
2021/06/24 01:40:25;;;;;;;19.98;8.30;;;;;;;-145.50;100.00;65435.88;4885579;29;20067;-48
2021/06/24 01:43:51;;;;;;;25.45;9.05;;;;;;;-145.50;100.00;65435.88;4861075;29;20094;-47
2021/06/24 01:47:16;;;;;;;18.33;8.68;;;;;;;-145.50;100.00;65435.88;4896082;29;20539;-48
2021/06/24 01:50:42;;;;;;;22.20;8.88;;;;;;;-145.50;100.00;65435.88;4884901;29;20531;-48
2021/06/24 01:54:07;;;;;;;19.75;7.90;;;;;;;-145.50;100.00;65435.88;4881934;29;20059;-48
2021/06/24 01:57:35;;;;;;;15.63;8.43;;;;;;;-145.50;100.00;65435.88;4881520;29;20063;-48
2021/06/24 02:01:07;;;;;;;20.30;8.70;;;;;;;-145.50;100.00;65435.88;4878446;29;20649;-49
2021/06/24 02:04:33;;;;;;;19.63;8.98;;;;;;;-145.50;100.00;65435.88;4881534;29;20052;-48
2021/06/24 02:07:58;;;;;;;22.33;8.75;;;;;;;-145.50;100.00;65435.88;4866049;29;20408;-48
2021/06/24 02:11:24;;;;;;;18.58;8.48;;;;;;;-145.50;100.00;65435.88;4875816;29;20092;-48
2021/06/24 02:14:49;;;;;;;17.02;8.82;;;;;;;-145.50;100.00;65435.88;4882714;29;20163;-48
2021/06/24 02:18:14;;;;;;;24.75;8.85;;;;;;;-145.50;100.00;65435.88;4880927;29;20553;-48
2021/06/24 02:21:39;;;;;;;26.25;8.95;;;;;;;-145.50;100.00;65435.88;4884318;29;20135;-48
2021/06/24 02:25:05;;;;;;;21.75;9.30;;;;;;;-145.50;100.00;65435.88;4886950;29;20087;-47
2021/06/24 02:28:30;;;;;;;21.83;9.63;;;;;;;-145.50;100.00;65435.88;4876914;29;20433;-48
2021/06/24 02:31:55;;;;;;;28.77;9.18;;;;;;;-145.50;100.00;65435.88;4894512;29;20134;-48
2021/06/24 02:35:21;;;;;;;17.38;8.77;;;;;;;-145.50;100.00;65435.88;4877667;29;20053;-48
2021/06/24 02:38:46;;;;;;;23.88;9.55;;;;;;;-145.50;100.00;65435.88;4872795;29;20095;-48
2021/06/24 02:42:11;;;;;;;18.35;9.40;;;;;;;-145.50;100.00;65435.88;4876827;29;20049;-48
2021/06/24 02:45:36;;;;;;;20.73;9.25;;;;;;;-145.50;100.00;65435.88;4874114;29;20052;-48
2021/06/24 02:49:01;;;;;;;19.23;9.43;;;;;;;-145.50;100.00;65435.88;4882005;29;20079;-48
2021/06/24 02:52:26;;;;;;;26.45;8.93;;;;;;;-145.50;100.00;65435.88;4883849;29;20147;-48
2021/06/24 02:55:31;;;;;;;24.67;9.38;;;;;;;-145.50;100.00;65435.88;4876720;29;20428;-47
2021/06/24 02:58:10;;;;;;;22.65;10.18;;;;;;;-145.50;100.00;65435.88;4893839;29;20135;-48
2021/06/24 03:00:37;;;;;;;25.55;9.52;;;;;;;-145.50;100.00;65435.88;4888562;29;20144;-47
2021/06/24 03:04:03;;;;;;;17.88;9.48;;;;;;;-145.50;100.00;65435.88;4891505;29;20159;-49
2021/06/24 03:06:39;;;;;;;24.98;9.40;;;;;;;-145.50;100.00;65435.88;4870725;29;20092;-48
2021/06/24 03:10:05;;;;;;;17.65;9.35;;;;;;;-145.50;100.00;65435.88;4888513;29;20088;-48
2021/06/24 03:13:29;;;;;;;19.70;9.45;;;;;;;-145.50;100.00;65435.88;4880922;29;20147;-48
2021/06/24 03:16:54;;;;;;;30.58;9.98;;;;;;;-145.50;100.00;65435.88;4888559;29;20511;-48
2021/06/24 03:20:08;;;;;;;26.30;9.48;;;;;;;-145.50;100.00;65435.88;4881589;29;20060;-48
2021/06/24 03:22:53;;;;;;;19.48;9.00;;;;;;;-145.50;100.00;65435.88;4879063;29;20167;-48
2021/06/24 03:26:18;;;;;;;25.38;9.43;;;;;;;-145.50;100.00;65435.88;4891488;29;20084;-48
2021/06/24 03:29:43;;;;;;;22.90;9.55;;;;;;;-145.50;100.00;65435.88;4886569;29;20056;-47
2021/06/24 03:33:08;;;;;;;17.88;9.80;;;;;;;-145.50;100.00;65435.88;4887391;29;20143;-48
2021/06/24 03:36:33;;;;;;;22.42;9.88;;;;;;;-145.50;100.00;65435.88;4870866;29;20143;-48
2021/06/24 03:39:58;;;;;;;23.95;8.90;;;;;;;-145.50;100.00;65435.88;4891463;29;20059;-48
2021/06/24 03:43:23;;;;;;;21.33;9.68;;;;;;;-145.50;100.00;65435.88;4895281;29;20095;-48
2021/06/24 03:46:48;;;;;;;18.23;9.27;;;;;;;-145.50;100.00;65435.88;4886066;29;20052;-48
2021/06/24 03:50:14;;;;;;;20.25;10.25;;;;;;;-145.50;100.00;65435.88;4887639;29;20095;-48
2021/06/24 03:53:39;;;;;;;21.60;9.65;;;;;;;-145.50;100.00;65435.88;4884123;29;20124;-48
2021/06/24 03:57:04;;;;;;;19.23;9.75;;;;;;;-145.50;100.00;65435.88;4890118;29;20084;-48
2021/06/24 04:00:29;;;;;;;14.48;9.50;;;;;;;-145.50;100.00;65435.88;4879698;29;20168;-50
2021/06/24 04:03:55;;;;;;;19.73;9.07;;;;;;;-145.50;100.00;65435.88;4863875;29;20498;-47
2021/06/24 04:07:20;;;;;;;20.20;9.77;;;;;;;-145.50;100.00;65435.88;4884713;29;20084;-48
2021/06/24 04:10:45;;;;;;;23.83;9.95;;;;;;;-145.50;100.00;65435.88;4875133;29;20083;-49
2021/06/24 04:14:10;;;;;;;21.13;9.77;;;;;;;-145.50;100.00;65435.88;4881281;29;20050;-50
2021/06/24 04:17:35;;;;;;;24.08;10.18;;;;;;;-145.50;100.00;65435.88;4877522;29;20145;-48
2021/06/24 04:21:01;;;;;;;27.10;9.90;;;;;;;-145.50;100.00;65435.88;4884199;29;20060;-51
2021/06/24 04:24:26;;;;;;;24.95;9.57;;;;;;;-145.50;100.00;65435.88;4876748;29;20096;-51
2021/06/24 04:27:51;;;;;;;17.50;10.00;;;;;;;-145.50;100.00;65435.88;4874000;29;20056;-49
2021/06/24 04:31:16;;;;;;;20.55;10.07;;;;;;;-145.50;100.00;65435.88;4884825;29;20140;-51
2021/06/24 04:34:41;;;;;;;18.63;9.52;;;;;;;-145.50;100.00;65435.88;4877008;29;20887;-49
2021/06/24 04:38:06;;;;;;;21.13;10.10;;;;;;;-145.50;100.00;65435.88;4869232;29;20084;-49
2021/06/24 04:41:31;;;;;;;24.52;10.15;;;;;;;-145.50;100.00;65435.88;4885306;29;20672;-48
2021/06/24 04:44:56;;;;;;;26.80;9.80;;;;;;;-145.50;100.00;65435.88;4880948;29;20135;-50
2021/06/24 04:48:21;;;;;;;20.10;9.52;;;;;;;-145.50;100.00;65435.88;4875299;29;20581;-51
2021/06/24 04:51:46;;;;;;;29.80;9.52;;;;;;;-145.50;100.00;65435.88;4887514;29;20148;-49
2021/06/24 04:55:12;;;;;;;17.17;8.90;;;;;;;-145.50;100.00;65435.88;4884473;29;20270;-49
2021/06/24 04:58:37;;;;;;;21.23;9.68;;;;;;;-145.50;100.00;65435.88;4883167;29;20091;-48
2021/06/24 05:02:02;;;;;;;21.92;9.52;;;;;;;-145.50;100.00;65435.88;4872464;29;20152;-51
2021/06/24 05:05:28;;;;;;;25.38;9.93;;;;;;;-145.50;100.00;65435.88;4875049;29;20075;-48
2021/06/24 05:08:54;;;;;;;18.10;9.20;;;;;;;-145.50;100.00;65435.88;4887925;29;20088;-49
2021/06/24 05:12:19;;;;;;;21.83;8.93;;;;;;;-145.50;100.00;65435.88;4874589;29;20164;-48
2021/06/24 05:15:45;;;;;;;22.38;9.48;;;;;;;-145.50;100.00;65435.88;4866900;29;20156;-50
2021/06/24 05:19:10;;;;;;;20.63;9.43;;;;;;;-145.50;100.00;65435.88;4872815;29;20473;-48
2021/06/24 05:22:36;;;;;;;22.83;9.35;;;;;;;-145.50;100.00;65435.88;4878629;29;20450;-51
2021/06/24 05:26:02;;;;;;;22.30;10.00;;;;;;;-145.50;100.00;65435.88;4882198;29;20159;-50
2021/06/24 05:29:27;;;;;;;14.07;8.95;;;;;;;-145.50;100.00;65435.88;4878284;29;20135;-49
2021/06/24 05:32:52;;;;;;;19.80;9.10;;;;;;;-145.50;100.00;65435.88;4880437;29;20144;-49
2021/06/24 05:36:17;;;;;;;24.23;10.27;;;;;;;-145.50;100.00;65435.88;4877293;29;20147;-49
2021/06/24 05:39:42;;;;;;;16.88;8.68;;;;;;;-145.50;100.00;65435.88;4880806;29;20103;-48
2021/06/24 05:43:07;;;;;;;15.85;8.60;;;;;;;-145.50;100.00;65435.88;4872127;29;20144;-48
2021/06/24 05:46:32;;;;;;;26.63;10.52;;;;;;;-145.50;100.00;65435.88;4867450;29;20934;-48
2021/06/24 05:49:58;;;;;;;20.23;10.10;;;;;;;-145.50;100.00;65435.88;4886249;29;20053;-50
2021/06/24 05:53:23;;;;;;;29.08;10.85;;;;;;;-145.50;100.00;65435.88;4884474;29;20476;-48
2021/06/24 05:56:51;;;;;;;25.45;12.15;;;;;;;-145.50;100.00;65435.88;4883525;29;20530;-49
2021/06/24 06:00:16;;;;;;;22.95;9.90;;;;;;;-145.50;100.00;65435.88;4873956;29;20088;-47
2021/06/24 06:03:41;;;;;;;21.83;10.35;;;;;;;-145.50;100.00;65435.88;4866751;29;20080;-48
2021/06/24 06:07:06;;;;;;;24.48;10.07;;;;;;;-145.50;100.00;65435.88;4889858;29;20089;-49
2021/06/24 06:10:32;;;;;;;25.17;10.07;;;;;;;-145.50;100.00;65435.88;4870981;29;20095;-49
2021/06/24 06:13:57;;;;;;;15.93;9.75;;;;;;;-145.50;100.00;65435.88;4884915;29;20810;-47
2021/06/24 06:17:22;;;;;;;20.35;10.23;;;;;;;-145.50;100.00;65435.88;4889458;29;20473;-50
2021/06/24 06:20:48;;;;;;;24.75;9.95;;;;;;;-145.50;100.00;65435.88;4885170;29;20139;-47
2021/06/24 06:24:14;;;;;;;25.55;10.45;;;;;;;-145.50;100.00;65435.88;4875600;29;20513;-49
2021/06/24 06:27:39;;;;;;;25.85;9.13;;;;;;;-145.50;100.00;65435.88;4875534;29;20136;-48
2021/06/24 06:31:05;;;;;;;18.98;9.27;;;;;;;-145.50;100.00;65435.88;4867487;29;20091;-48
2021/06/24 06:34:30;;;;;;;20.98;9.88;;;;;;;-145.50;100.00;65435.88;4875289;29;20178;-48
2021/06/24 06:37:55;;;;;;;29.10;10.38;;;;;;;-145.50;100.00;65435.88;4883451;29;20071;-48
2021/06/24 06:41:20;;;;;;;20.52;9.98;;;;;;;-145.50;100.00;65435.88;4896994;29;20143;-49
2021/06/24 06:44:45;;;;;;;21.42;9.63;;;;;;;-145.50;100.00;65435.88;4875255;29;20098;-51
2021/06/24 06:48:10;;;;;;;16.67;9.60;;;;;;;-145.50;100.00;65435.88;4877556;29;20594;-49
2021/06/24 06:51:36;;;;;;;19.13;10.25;;;;;;;-145.50;100.00;65435.88;4879285;29;20135;-48
2021/06/24 06:55:01;;;;;;;23.13;9.95;;;;;;;-145.50;100.00;65435.88;4883414;29;20557;-48
2021/06/24 06:58:26;;;;;;;22.70;9.68;;;;;;;-145.50;100.00;65435.88;4883688;29;20159;-50
2021/06/24 07:01:51;;;;;;;22.10;9.48;;;;;;;-145.50;100.00;65435.88;4889555;29;20151;-48
2021/06/24 07:05:17;;;;;;;24.05;10.60;;;;;;;-145.50;100.00;65435.88;4880007;29;20064;-48
2021/06/24 07:08:42;;;;;;;24.48;10.05;;;;;;;-145.50;100.00;65435.88;4890010;29;20088;-52
2021/06/24 07:12:07;;;;;;;17.48;8.77;;;;;;;-145.50;100.00;65435.88;4875388;29;20076;-48
2021/06/24 07:15:32;;;;;;;21.45;9.18;;;;;;;-145.50;100.00;65435.88;4883814;29;20088;-49
2021/06/24 07:18:57;;;;;;;18.98;9.20;;;;;;;-145.50;100.00;65435.88;4881988;29;20080;-49
2021/06/24 07:22:22;;;;;;;21.48;9.23;;;;;;;-145.50;100.00;65435.88;4874010;29;20147;-52
2021/06/24 07:25:47;;;;;;;25.50;10.15;;;;;;;-145.50;100.00;65435.88;4885765;29;20052;-49
2021/06/24 07:29:13;;;;;;;15.13;8.95;;;;;;;-145.50;100.00;65435.88;4858818;29;20052;-48
2021/06/24 07:32:38;;;;;;;21.10;9.30;;;;;;;-145.50;100.00;65435.88;4877329;29;20083;-50
2021/06/24 07:36:03;;;;;;;19.15;9.52;;;;;;;-145.50;100.00;65435.88;4869714;29;20147;-49
2021/06/24 07:39:29;;;;;;;25.90;10.07;;;;;;;-145.50;100.00;65435.88;4879658;29;20151;-49
2021/06/24 07:42:55;;;;;;;21.45;9.32;;;;;;;-145.50;100.00;65435.88;4892461;29;20163;-49
2021/06/24 07:46:20;;;;;;;20.70;9.00;;;;;;;-145.50;100.00;65435.88;4882165;29;20151;-50
2021/06/24 07:49:46;;;;;;;19.40;8.95;;;;;;;-145.50;100.00;65435.88;4886439;29;20064;-49
2021/06/24 07:53:13;;;;;;;16.80;8.85;;;;;;;-145.50;100.00;65435.88;4891757;29;20091;-49
2021/06/24 07:56:38;;;;;;;18.55;8.68;;;;;;;-145.50;100.00;65435.88;4887005;29;20159;-49
2021/06/24 08:00:10;;;;;;;25.08;10.27;;;;;;;-145.50;100.00;65435.88;4897416;29;20726;-48
2021/06/24 08:03:36;;;;;;;19.20;9.15;;;;;;;-145.50;100.00;65435.88;4882761;29;20143;-49
2021/06/24 08:07:02;;;;;;;17.52;8.57;;;;;;;-145.50;100.00;65435.88;4876040;29;20079;-49
2021/06/24 08:10:27;;;;;;;20.25;8.43;;;;;;;-145.50;100.00;65435.88;4866466;29;20542;-49
2021/06/24 08:13:52;;;;;;;20.55;8.20;;;;;;;-145.50;100.00;65435.88;4880374;29;20147;-51
2021/06/24 08:17:17;;;;;;;24.45;8.30;;;;;;;-145.50;100.00;65435.88;4888391;29;20104;-48
2021/06/24 08:20:45;;;;;;;21.13;8.20;;;;;;;-145.50;100.00;65435.88;4887561;29;20064;-48
2021/06/24 08:24:09;;;;;;;23.17;8.68;;;;;;;-145.50;100.00;65435.88;4884941;29;20239;-48
2021/06/24 08:27:35;;;;;;;13.77;7.68;;;;;;;-145.50;100.00;65435.88;4882679;29;20335;-47
2021/06/24 08:31:05;;;;;;;24.50;8.13;;;;;;;-145.50;100.00;65435.88;4871362;29;20087;-49
2021/06/24 08:34:30;;;;;;;15.38;8.88;;;;;;;-145.50;100.00;65435.88;4884195;29;20668;-51
2021/06/24 08:37:55;;;;;;;20.25;8.27;;;;;;;-145.50;100.00;65435.88;4888086;29;20083;-49
2021/06/24 08:41:25;;;;;;;15.52;9.32;;;;;;;-145.50;100.00;65435.88;4871524;29;20147;-50
2021/06/24 08:44:50;;;;;;;19.33;9.50;;;;;;;-145.50;100.00;65435.88;4886074;29;20167;-48
2021/06/24 08:48:18;;;;;;;21.70;8.95;;;;;;;-145.50;100.00;65435.88;4885068;29;20071;-48
2021/06/24 08:51:44;;;;;;;15.30;7.80;;;;;;;-145.50;100.00;65435.88;4889354;29;21181;-48
2021/06/24 08:55:09;;;;;;;20.70;8.50;;;;;;;-145.50;100.00;65435.88;4891851;29;20097;-49
2021/06/24 08:58:34;;;;;;;24.50;8.90;;;;;;;-145.50;100.00;65435.88;4886109;29;20167;-47
2021/06/24 09:02:00;;;;;;;19.65;9.98;;;;;;;-145.50;100.00;65435.88;4887950;29;20140;-48
2021/06/24 09:05:46;;;;;;;29.40;13.15;;;;;;;-145.50;100.00;65435.88;4882611;29;20061;-48
2021/06/24 09:09:22;;;;;;;21.20;10.07;;;;;;;-145.50;100.00;65435.88;4868768;29;20052;-49
2021/06/24 09:12:52;;;;;;;20.63;9.83;;;;;;;-145.50;100.00;65435.88;4891049;29;20147;-48
2021/06/24 09:16:22;;;;;;;19.25;9.35;;;;;;;-145.50;100.00;65435.88;4880289;29;20056;-48
2021/06/24 09:19:47;;;;;;;16.83;10.15;;;;;;;-145.50;100.00;65435.88;4882928;29;20147;-48
2021/06/24 09:23:16;;;;;;;18.63;9.88;;;;;;;-145.50;100.00;65435.88;4890200;29;20052;-49
2021/06/24 09:26:07;;;;;;;16.92;9.90;;;;;;;-145.50;100.00;65435.88;4881172;29;20091;-48
2021/06/24 09:29:39;;;;;;;20.80;9.95;;;;;;;-145.50;100.00;65435.88;4892173;29;20140;-48
2021/06/24 09:33:14;;;;;;;26.08;10.75;;;;;;;-145.50;100.00;65435.88;4873265;29;20102;-48
2021/06/24 09:36:37;;;;;;;20.15;11.02;;;;;;;-145.50;100.00;65435.88;4884477;29;20143;-51
2021/06/24 09:40:12;;;;;;;21.67;10.25;;;;;;;-145.50;100.00;65435.88;4886943;29;20116;-49
2021/06/24 09:43:39;;;;;;;21.35;10.13;;;;;;;-145.50;100.00;65435.88;4878466;29;20629;-48
2021/06/24 09:47:17;;;;;;;22.65;11.50;;;;;;;-145.50;100.00;65435.88;4884724;29;20140;-48
2021/06/24 09:50:51;;;;;;;20.95;10.85;;;;;;;-145.50;100.00;65435.88;4889588;29;20143;-48
2021/06/24 09:54:17;;;;;;;21.23;11.02;;;;;;;-145.50;100.00;65435.88;4884102;29;20159;-48
2021/06/24 09:57:43;;;;;;;16.13;10.00;;;;;;;-145.50;100.00;65435.88;4889434;29;20071;-48
2021/06/24 10:01:27;;;;;;;20.67;9.85;;;;;;;-145.50;100.00;65435.88;4880596;29;20139;-48
2021/06/24 10:04:57;;;;;;;20.85;10.00;;;;;;;-145.50;100.00;65435.88;4872336;29;20052;-50
2021/06/24 10:08:20;;;;;;;17.85;9.73;;;;;;;-145.50;100.00;65435.88;4882998;29;20171;-48
2021/06/24 10:11:46;;;;;;;20.33;11.23;;;;;;;-145.50;100.00;65435.88;4895175;29;20052;-48
2021/06/24 10:15:11;;;;;;;19.20;11.43;;;;;;;-145.50;100.00;65435.88;4881457;29;20148;-48
2021/06/24 10:18:36;;;;;;;25.35;12.00;;;;;;;-145.50;100.00;65435.88;4883909;29;20121;-48
2021/06/24 10:22:04;;;;;;;27.35;11.55;;;;;;;-145.50;100.00;65435.88;4890188;29;20139;-48
2021/06/24 10:25:38;;;;;;;23.73;12.02;;;;;;;-145.50;100.00;65435.88;4874273;29;20545;-49
2021/06/24 10:29:28;;;;;;;20.83;11.55;;;;;;;-145.50;100.00;65435.88;4865469;29;20099;-49
2021/06/24 10:32:56;;;;;;;19.17;11.38;;;;;;;-145.50;100.00;65435.88;4898172;29;20150;-49
2021/06/24 10:36:25;;;;;;;23.25;11.32;;;;;;;-145.50;100.00;65435.88;4884361;29;20400;-48
2021/06/24 10:39:51;;;;;;;25.50;11.68;;;;;;;-145.50;100.00;65435.88;4888489;29;20116;-49
2021/06/24 10:43:17;;;;;;;26.63;13.40;;;;;;;-145.50;100.00;65435.88;4880476;29;20068;-48
2021/06/24 10:47:02;;;;;;;25.98;11.80;;;;;;;-145.50;100.00;65435.88;4883815;29;20117;-48
2021/06/24 10:50:33;;;;;;;22.27;10.80;;;;;;;-145.50;100.00;65435.88;4882212;29;20049;-49
2021/06/24 10:54:01;;;;;;;21.88;11.43;;;;;;;-145.50;100.00;65435.88;4881954;29;20052;-48
2021/06/24 10:57:41;;;;;;;19.98;10.90;;;;;;;-145.50;100.00;65435.88;4880237;29;20492;-50
2021/06/24 11:01:44;;;;;;;21.38;11.20;;;;;;;-145.50;100.00;65435.88;4902880;29;20179;-48
2021/06/24 11:05:24;;;;;;;19.65;11.55;;;;;;;-145.50;100.00;65435.88;4886992;29;20059;-50
2021/06/24 11:09:11;;;;;;;20.25;11.20;;;;;;;-145.50;100.00;65435.88;4872898;29;20631;-48
2021/06/24 11:12:50;;;;;;;23.85;13.52;;;;;;;-145.50;100.00;65435.88;4897119;29;20087;-48
2021/06/24 11:16:35;;;;;;;24.05;12.30;;;;;;;-145.50;100.00;65435.88;4890336;29;20482;-48
2021/06/24 11:20:14;;;;;;;20.70;12.38;;;;;;;-145.50;100.00;65435.88;4887567;29;20063;-48
2021/06/24 11:23:48;;;;;;;22.08;12.10;;;;;;;-145.50;100.00;65435.88;4894172;29;20151;-49
2021/06/24 11:27:21;;;;;;;21.92;12.10;;;;;;;-145.50;100.00;65435.88;4882086;29;20140;-49
2021/06/24 11:30:02;;;;;;;20.42;12.18;;;;;;;-145.50;100.00;65435.88;4884896;29;20144;-49
2021/06/24 11:33:37;;;;;;;29.23;12.23;;;;;;;-145.50;100.00;65435.88;4875622;29;20072;-50
2021/06/24 11:37:05;;;;;;;21.13;11.57;;;;;;;-145.50;100.00;65435.88;4874002;29;20057;-48
2021/06/24 11:40:32;;;;;;;37.55;19.48;;;;;;;-145.50;100.00;65435.88;4880931;29;20044;-50
2021/06/24 11:44:05;;;;;;;26.90;13.07;;;;;;;-145.50;100.00;65435.88;4901918;29;20056;-49
2021/06/24 11:47:36;;;;;;;21.45;12.23;;;;;;;-145.50;100.00;65435.88;4887730;29;20618;-49
2021/06/24 12:06:05;;;;;;;25.20;14.55;;;;;;;-145.50;100.00;65435.88;4889134;29;20122;-49
2021/06/24 12:09:52;;;;;;;33.25;14.77;;;;;;;-145.50;100.00;65435.88;4882442;29;20148;-48
2021/06/24 12:13:29;;;;;;;26.08;15.60;;;;;;;-145.50;100.00;65435.88;4888282;29;20063;-49
2021/06/24 12:17:10;;;;;;;33.97;15.68;;;;;;;-145.50;100.00;65435.88;4878754;29;20143;-49
2021/06/24 12:20:41;;;;;;;23.83;15.23;;;;;;;-145.50;100.00;65435.88;4877946;29;20052;-51
2021/06/24 12:24:38;;;;;;;26.63;15.38;;;;;;;-145.50;100.00;65435.88;4893197;29;20580;-50
2021/06/24 12:28:14;;;;;;;33.47;16.10;;;;;;;-145.50;100.00;65435.88;4871784;29;20878;-48
2021/06/24 12:31:39;;;;;;;31.08;15.55;;;;;;;-145.50;100.00;65435.88;4884608;29;20056;-49
2021/06/24 12:35:05;;;;;;;26.50;14.40;;;;;;;-145.50;100.00;65435.88;4892389;29;20053;-47
2021/06/24 12:38:31;;;;;;;21.30;13.95;;;;;;;-145.50;100.00;65435.88;4886940;29;20060;-49
2021/06/24 12:42:02;;;;;;;29.20;15.77;;;;;;;-145.50;100.00;65435.88;4883424;29;20140;-49
2021/06/24 12:45:28;;;;;;;25.58;16.08;;;;;;;-145.50;100.00;65435.88;4881659;29;20089;-49
2021/06/24 12:48:53;;;;;;;26.48;14.88;;;;;;;-145.50;100.00;65435.88;4879999;29;20049;-48
2021/06/24 12:52:29;;;;;;;25.85;15.85;;;;;;;-145.50;100.00;65435.88;4894690;29;20052;-47
2021/06/24 12:55:54;;;;;;;29.05;15.38;;;;;;;-145.50;100.00;65435.88;4877859;29;20068;-48
2021/06/24 12:59:22;;;;;;;25.90;15.75;;;;;;;-145.50;100.00;65435.88;4883087;29;20096;-50
2021/06/24 13:02:51;;;;;;;27.52;16.08;;;;;;;-145.50;100.00;65435.88;4884429;29;20886;-50
2021/06/24 13:06:27;;;;;;;31.13;16.58;;;;;;;-145.50;100.00;65435.88;4884076;29;20143;-49
2021/06/24 13:10:00;;;;;;;31.90;16.42;;;;;;;-145.50;100.00;65435.88;4883043;29;20052;-49
2021/06/24 13:13:30;;;;;;;29.00;16.75;;;;;;;-145.50;100.00;65435.88;4885196;29;20064;-48
2021/06/24 13:16:57;;;;;;;26.15;16.20;;;;;;;-145.50;100.00;65435.88;4884519;29;20063;-51
2021/06/24 13:20:22;;;;;;;;;;;;;;;-145.50;100.00;65435.88;4891163;29;20060;-49
2021/06/24 13:23:48;;;;;;;28.88;16.45;;;;;;;-145.50;100.00;65435.88;4864214;29;19938;-48
2021/06/24 13:27:17;;;;;;;30.75;15.57;;;;;;;-145.50;100.00;65435.88;4891140;29;20091;-50
2021/06/24 13:31:01;;;;;;;27.27;15.82;;;;;;;-145.50;100.00;65435.88;4887288;29;20525;-50
2021/06/24 13:34:36;;;;;;;31.58;16.17;;;;;;;-145.50;100.00;65435.88;4882426;29;20136;-47
2021/06/24 13:37:56;;;;;;;34.58;17.58;;;;;;;-145.50;100.00;65435.88;4888622;29;20099;-48
2021/06/24 13:40:57;;;;;;;29.83;16.88;;;;;;;-145.50;100.00;65435.88;4882212;29;20160;-49
2021/06/24 13:44:13;;;;;;;31.77;17.75;;;;;;;-145.50;100.00;65435.88;4888261;29;20068;-51
2021/06/24 13:47:39;;;;;;;33.83;17.70;;;;;;;-145.50;100.00;65435.88;4884957;29;20874;-49
2021/06/24 13:51:03;;;;;;;33.95;17.73;;;;;;;-145.50;100.00;65435.88;4879952;29;20139;-48
2021/06/24 13:54:25;;;;;;;31.80;18.83;;;;;;;-145.50;100.00;65435.88;4890303;29;20148;-48
2021/06/24 13:57:11;;;;;;;37.85;18.27;;;;;;;-145.50;100.00;65435.88;4871362;29;20476;-48
2021/06/24 14:00:38;;;;;;;36.20;19.23;;;;;;;-145.50;100.00;65435.88;4884334;29;20557;-50
2021/06/24 14:03:20;;;;;;;37.00;20.02;;;;;;;-145.50;100.00;65435.88;4878123;29;20056;-48
2021/06/24 14:06:03;;;;;;;35.53;18.52;;;;;;;-145.50;100.00;65435.88;4885758;29;20084;-48
2021/06/24 14:09:28;;;;;;;31.75;18.23;;;;;;;-145.50;100.00;65435.88;4883488;29;20493;-49
2021/06/24 14:12:54;;;;;;;39.88;20.98;;;;;;;-145.50;100.00;65435.88;4886861;29;20385;-48
2021/06/24 14:15:58;;;;;;;37.72;19.05;;;;;;;-145.50;100.00;65435.88;4891078;29;20060;-49
2021/06/24 14:19:27;;;;;;;31.17;18.13;;;;;;;-145.50;100.00;65435.88;4877944;29;20087;-51
2021/06/24 14:22:11;;;;;;;36.67;18.75;;;;;;;-145.50;100.00;65435.88;4883283;29;20548;-49
2021/06/24 14:24:38;;;;;;;31.95;17.33;;;;;;;-145.50;100.00;65435.88;4880681;29;20560;-49
2021/06/24 14:28:02;;;;;;;32.13;18.63;;;;;;;-145.50;100.00;65435.88;4880689;29;20160;-48
2021/06/24 14:31:27;;;;;;;30.30;19.52;;;;;;;-145.50;100.00;65435.88;4864543;29;20322;-47
2021/06/24 14:34:47;;;;;;;33.03;18.38;;;;;;;-145.50;100.00;65435.88;4882633;29;20056;-50
2021/06/24 14:38:12;;;;;;;38.83;18.17;;;;;;;-145.50;100.00;65435.88;4879488;29;20052;-49
2021/06/24 14:40:39;;;;;;;32.25;18.45;;;;;;;-145.50;100.00;65435.88;4888219;29;20055;-48
2021/06/24 14:43:20;;;;;;;29.23;18.80;;;;;;;-145.50;100.00;65435.88;4887009;29;20455;-50
2021/06/24 14:46:04;;;;;;;31.67;19.15;;;;;;;-145.50;100.00;65435.88;4877201;29;20152;-48
2021/06/24 14:49:29;;;;;;;39.72;19.42;;;;;;;-145.50;100.00;65435.88;4883870;29;20056;-48
2021/06/24 14:52:01;;;;;;;32.78;19.35;;;;;;;-145.50;100.00;65435.88;4882658;29;20094;-47
2021/06/24 14:55:26;;;;;;;37.10;19.52;;;;;;;-145.50;100.00;65435.88;4887466;29;20151;-49
2021/06/24 14:58:36;;;;;;;35.83;18.88;;;;;;;-145.50;100.00;65435.88;4884612;29;20066;-48
2021/06/24 15:01:19;;;;;;;36.30;20.10;;;;;;;-145.50;100.00;65435.88;4880499;29;20434;-47
2021/06/24 15:03:50;;;;;;;36.13;19.90;;;;;;;-145.50;100.00;65435.88;4869715;29;20105;-48
2021/06/24 15:06:38;;;;;;;28.80;18.48;;;;;;;-145.50;100.00;65435.88;4875230;29;20436;-49
2021/06/24 15:10:04;;;;;;;34.50;17.23;;;;;;;-145.50;100.00;65435.88;4885217;29;20116;-48
2021/06/24 15:13:28;;;;;;;25.50;16.63;;;;;;;-145.50;100.00;65435.88;4889816;29;20103;-50
2021/06/24 15:16:38;;;;;;;27.13;17.63;;;;;;;-145.50;100.00;65435.88;4882596;29;20062;-49
2021/06/24 15:20:04;;;;;;;32.80;17.67;;;;;;;-145.50;100.00;65435.88;4903937;29;20065;-48
2021/06/24 15:23:17;;;;;;;30.88;18.70;;;;;;;-145.50;100.00;65435.88;4896917;29;20155;-48
2021/06/24 15:26:09;;;;;;;29.08;18.20;;;;;;;-145.50;100.00;65435.88;4876858;29;20554;-50